sensor_id;sensor_type;location;lat;lon;timestamp;pressure;altitude;pressure_sealevel;temperature;humidity
80321;BME280;69633;47.066;15.450;2023-06-10T00:00:11;97232.00;;;17.80;79.81
80321;BME280;69633;47.066;15.450;2023-06-10T00:02:41;97232.38;;;17.75;79.73
80321;BME280;69633;47.066;15.450;2023-06-10T00:05:08;97220.84;;;17.68;79.86
80321;BME280;69633;47.066;15.450;2023-06-10T00:07:36;97230.81;;;17.67;80.09
80321;BME280;69633;47.066;15.450;2023-06-10T00:12:29;97220.44;;;17.59;80.17
80321;BME280;69633;47.066;15.450;2023-06-10T00:14:56;97217.38;;;17.57;80.25
80321;BME280;69633;47.066;15.450;2023-06-10T00:17:27;97226.97;;;17.58;80.23
80321;BME280;69633;47.066;15.450;2023-06-10T00:19:54;97225.78;;;17.52;80.27
80321;BME280;69633;47.066;15.450;2023-06-10T00:22:21;97222.72;;;17.50;79.97
80321;BME280;69633;47.066;15.450;2023-06-10T00:24:48;97226.16;;;17.39;80.22
80321;BME280;69633;47.066;15.450;2023-06-10T00:27:16;97225.75;;;17.34;80.11
80321;BME280;69633;47.066;15.450;2023-06-10T00:29:41;97223.44;;;17.29;80.36
80321;BME280;69633;47.066;15.450;2023-06-10T00:32:09;97223.03;;;17.23;80.40
80321;BME280;69633;47.066;15.450;2023-06-10T00:34:35;97224.16;;;17.15;80.71
80321;BME280;69633;47.066;15.450;2023-06-10T00:37:07;97219.56;;;17.09;81.00
80321;BME280;69633;47.066;15.450;2023-06-10T00:39:34;97219.91;;;17.07;80.83
80321;BME280;69633;47.066;15.450;2023-06-10T00:42:00;97222.59;;;17.04;80.71
80321;BME280;69633;47.066;15.450;2023-06-10T00:44:27;97217.22;;;17.04;80.60
80321;BME280;69633;47.066;15.450;2023-06-10T00:46:53;97205.75;;;17.07;80.39
80321;BME280;69633;47.066;15.450;2023-06-10T00:49:21;97218.00;;;17.01;80.48
80321;BME280;69633;47.066;15.450;2023-06-10T00:51:47;97211.84;;;16.97;80.70
80321;BME280;69633;47.066;15.450;2023-06-10T00:54:14;97209.53;;;16.99;80.46
80321;BME280;69633;47.066;15.450;2023-06-10T00:56:41;97202.66;;;16.94;80.84
80321;BME280;69633;47.066;15.450;2023-06-10T00:59:10;97212.19;;;16.88;81.17
80321;BME280;69633;47.066;15.450;2023-06-10T01:01:36;97211.78;;;16.82;81.04
80321;BME280;69633;47.066;15.450;2023-06-10T01:04:03;97206.41;;;16.79;81.22
80321;BME280;69633;47.066;15.450;2023-06-10T01:06:56;97207.19;;;16.79;81.19
80321;BME280;69633;47.066;15.450;2023-06-10T01:13:00;97211.03;;;16.82;80.84
80321;BME280;69633;47.066;15.450;2023-06-10T01:15:34;97210.63;;;16.83;80.84
80321;BME280;69633;47.066;15.450;2023-06-10T01:18:08;97209.13;;;16.86;80.75
80321;BME280;69633;47.066;15.450;2023-06-10T01:20:41;97207.22;;;16.86;80.66
80321;BME280;69633;47.066;15.450;2023-06-10T01:23:12;97214.88;;;16.95;80.34
80321;BME280;69633;47.066;15.450;2023-06-10T01:26:18;97208.41;;;17.00;80.20
80321;BME280;69633;47.066;15.450;2023-06-10T01:29:00;97211.06;;;16.92;80.45
80321;BME280;69633;47.066;15.450;2023-06-10T01:34:18;97214.47;;;16.82;80.60
80321;BME280;69633;47.066;15.450;2023-06-10T01:37:04;97220.97;;;16.78;80.70
80321;BME280;69633;47.066;15.450;2023-06-10T01:39:30;97227.09;;;16.78;80.68
80321;BME280;69633;47.066;15.450;2023-06-10T01:42:18;97222.09;;;16.80;80.38
80321;BME280;69633;47.066;15.450;2023-06-10T01:44:45;97223.66;;;16.81;80.23
80321;BME280;69633;47.066;15.450;2023-06-10T01:47:10;97214.06;;;16.80;80.21
80321;BME280;69633;47.066;15.450;2023-06-10T01:49:37;97211.78;;;16.79;80.30
80321;BME280;69633;47.066;15.450;2023-06-10T01:54:29;97218.66;;;16.80;80.15
80321;BME280;69633;47.066;15.450;2023-06-10T01:56:55;97217.13;;;16.79;80.18
80321;BME280;69633;47.066;15.450;2023-06-10T01:59:20;97222.09;;;16.80;79.91
80321;BME280;69633;47.066;15.450;2023-06-10T02:01:48;97218.66;;;16.83;79.88
80321;BME280;69633;47.066;15.450;2023-06-10T02:04:14;97228.97;;;16.74;79.91
80321;BME280;69633;47.066;15.450;2023-06-10T02:06:41;97232.00;;;16.69;80.00
80321;BME280;69633;47.066;15.450;2023-06-10T02:09:09;97231.59;;;16.60;80.17
80321;BME280;69633;47.066;15.450;2023-06-10T02:11:35;97217.78;;;16.58;80.31
80321;BME280;69633;47.066;15.450;2023-06-10T02:14:03;97218.56;;;16.59;80.18
80321;BME280;69633;47.066;15.450;2023-06-10T02:16:30;97226.97;;;16.57;80.49
80321;BME280;69633;47.066;15.450;2023-06-10T02:18:59;97223.16;;;16.58;80.40
80321;BME280;69633;47.066;15.450;2023-06-10T02:21:27;97233.88;;;16.58;80.35
80321;BME280;69633;47.066;15.450;2023-06-10T02:23:54;97233.13;;;16.61;80.38
80321;BME280;69633;47.066;15.450;2023-06-10T02:26:21;97227.75;;;16.61;80.34
80321;BME280;69633;47.066;15.450;2023-06-10T02:28:49;97233.53;;;16.67;80.01
80321;BME280;69633;47.066;15.450;2023-06-10T02:31:16;97236.22;;;16.70;79.97
80321;BME280;69633;47.066;15.450;2023-06-10T02:33:45;97231.59;;;16.60;80.27
80321;BME280;69633;47.066;15.450;2023-06-10T02:36:10;97236.16;;;16.56;80.30
80321;BME280;69633;47.066;15.450;2023-06-10T02:38:41;97228.84;;;16.53;80.37
80321;BME280;69633;47.066;15.450;2023-06-10T02:41:08;97230.75;;;16.49;80.38
80321;BME280;69633;47.066;15.450;2023-06-10T02:43:35;97240.31;;;16.54;80.34
80321;BME280;69633;47.066;15.450;2023-06-10T02:46:01;97241.84;;;16.55;80.21
80321;BME280;69633;47.066;15.450;2023-06-10T02:48:28;97251.41;;;16.52;80.10
80321;BME280;69633;47.066;15.450;2023-06-10T02:50:55;97244.84;;;16.46;79.60
80321;BME280;69633;47.066;15.450;2023-06-10T02:53:22;97249.00;;;16.33;80.02
80321;BME280;69633;47.066;15.450;2023-06-10T02:55:49;97245.06;;;16.20;80.35
80321;BME280;69633;47.066;15.450;2023-06-10T02:58:14;97252.75;;;16.25;80.50
80321;BME280;69633;47.066;15.450;2023-06-10T03:00:41;97247.81;;;16.27;80.29
80321;BME280;69633;47.066;15.450;2023-06-10T03:03:08;97253.94;;;16.31;80.17
80321;BME280;69633;47.066;15.450;2023-06-10T03:05:37;97264.31;;;16.36;79.64
80321;BME280;69633;47.066;15.450;2023-06-10T03:08:03;97263.50;;;16.28;79.64
80321;BME280;69633;47.066;15.450;2023-06-10T03:10:29;97272.03;;;16.41;79.16
80321;BME280;69633;47.066;15.450;2023-06-10T03:12:56;97261.31;;;16.44;78.85
80321;BME280;69633;47.066;15.450;2023-06-10T03:15:21;97257.53;;;16.49;78.56
80321;BME280;69633;47.066;15.450;2023-06-10T03:17:48;97262.53;;;16.54;78.90
80321;BME280;69633;47.066;15.450;2023-06-10T03:20:15;97261.88;;;16.64;78.50
80321;BME280;69633;47.066;15.450;2023-06-10T03:22:44;97271.06;;;16.70;78.07
80321;BME280;69633;47.066;15.450;2023-06-10T03:25:10;97270.31;;;16.73;78.12
80321;BME280;69633;47.066;15.450;2023-06-10T03:27:41;97272.19;;;16.66;78.62
80321;BME280;69633;47.066;15.450;2023-06-10T03:30:09;97274.41;;;16.53;78.91
80321;BME280;69633;47.066;15.450;2023-06-10T03:32:36;97280.16;;;16.55;78.96
80321;BME280;69633;47.066;15.450;2023-06-10T03:35:02;97282.13;;;16.62;78.65
80321;BME280;69633;47.066;15.450;2023-06-10T03:37:29;97282.50;;;16.60;78.63
80321;BME280;69633;47.066;15.450;2023-06-10T03:39:56;97279.88;;;16.67;78.81
80321;BME280;69633;47.066;15.450;2023-06-10T03:42:22;97288.38;;;16.83;77.97
80321;BME280;69633;47.066;15.450;2023-06-10T03:44:51;97289.91;;;16.81;78.01
80321;BME280;69633;47.066;15.450;2023-06-10T03:47:18;97289.09;;;16.77;78.19
80321;BME280;69633;47.066;15.450;2023-06-10T03:49:44;97286.84;;;16.79;78.24
80321;BME280;69633;47.066;15.450;2023-06-10T03:52:10;97295.25;;;16.77;77.76
80321;BME280;69633;47.066;15.450;2023-06-10T03:54:36;97290.63;;;16.71;78.44
80321;BME280;69633;47.066;15.450;2023-06-10T03:57:02;97288.72;;;16.71;78.07
80321;BME280;69633;47.066;15.450;2023-06-10T03:59:29;97291.00;;;16.76;77.85
80321;BME280;69633;47.066;15.450;2023-06-10T04:01:55;97290.31;;;16.83;77.54
80321;BME280;69633;47.066;15.450;2023-06-10T04:04:23;97295.25;;;16.77;77.65
80321;BME280;69633;47.066;15.450;2023-06-10T04:06:51;97296.75;;;16.71;77.62
80321;BME280;69633;47.066;15.450;2023-06-10T04:09:19;97299.78;;;16.66;78.13
80321;BME280;69633;47.066;15.450;2023-06-10T04:11:46;97302.09;;;16.68;77.94
80321;BME280;69633;47.066;15.450;2023-06-10T04:14:12;97305.56;;;16.72;77.97
80321;BME280;69633;47.066;15.450;2023-06-10T04:16:39;97303.31;;;16.84;77.68
80321;BME280;69633;47.066;15.450;2023-06-10T04:19:05;97294.56;;;16.95;77.40
80321;BME280;69633;47.066;15.450;2023-06-10T04:21:32;97301.13;;;17.04;77.29
80321;BME280;69633;47.066;15.450;2023-06-10T04:23:58;97305.69;;;16.97;77.37
80321;BME280;69633;47.066;15.450;2023-06-10T04:26:24;97295.75;;;17.04;77.17
80321;BME280;69633;47.066;15.450;2023-06-10T04:28:53;97296.59;;;17.19;76.94
80321;BME280;69633;47.066;15.450;2023-06-10T04:31:20;97295.50;;;17.30;76.55
80321;BME280;69633;47.066;15.450;2023-06-10T04:33:46;97295.53;;;17.45;76.19
80321;BME280;69633;47.066;15.450;2023-06-10T04:36:13;97292.56;;;17.67;75.40
80321;BME280;69633;47.066;15.450;2023-06-10T04:38:41;97292.56;;;17.74;75.45
80321;BME280;69633;47.066;15.450;2023-06-10T04:41:08;97296.03;;;17.89;75.10
80321;BME280;69633;47.066;15.450;2023-06-10T04:43:35;97289.53;;;18.08;74.58
80321;BME280;69633;47.066;15.450;2023-06-10T04:46:03;97302.59;;;18.20;74.20
80321;BME280;69633;47.066;15.450;2023-06-10T04:48:30;97298.00;;;17.99;74.93
80321;BME280;69633;47.066;15.450;2023-06-10T04:50:58;97294.91;;;18.01;75.07
80321;BME280;69633;47.066;15.450;2023-06-10T04:53:26;97301.06;;;18.12;74.67
80321;BME280;69633;47.066;15.450;2023-06-10T04:55:57;97298.78;;;18.07;75.06
80321;BME280;69633;47.066;15.450;2023-06-10T04:58:23;97303.38;;;18.13;74.95
80321;BME280;69633;47.066;15.450;2023-06-10T05:00:51;97299.53;;;18.25;74.72
80321;BME280;69633;47.066;15.450;2023-06-10T05:03:19;97298.75;;;18.28;74.29
80321;BME280;69633;47.066;15.450;2023-06-10T05:05:46;97298.00;;;18.34;74.05
80321;BME280;69633;47.066;15.450;2023-06-10T05:08:12;97300.31;;;18.22;74.42
80321;BME280;69633;47.066;15.450;2023-06-10T05:10:39;97301.06;;;18.15;75.05
80321;BME280;69633;47.066;15.450;2023-06-10T05:13:07;97304.13;;;18.35;74.55
80321;BME280;69633;47.066;15.450;2023-06-10T05:15:34;97298.75;;;18.42;74.55
80321;BME280;69633;47.066;15.450;2023-06-10T05:18:00;97308.75;;;18.27;74.97
80321;BME280;69633;47.066;15.450;2023-06-10T05:20:30;97307.97;;;18.30;75.13
80321;BME280;69633;47.066;15.450;2023-06-10T05:22:57;97303.00;;;18.36;74.88
80321;BME280;69633;47.066;15.450;2023-06-10T05:25:22;97306.06;;;18.52;74.17
80321;BME280;69633;47.066;15.450;2023-06-10T05:27:48;97300.28;;;18.86;73.59
80321;BME280;69633;47.066;15.450;2023-06-10T05:30:15;97303.69;;;19.04;72.85
80321;BME280;69633;47.066;15.450;2023-06-10T05:32:46;97309.38;;;19.27;71.67
80321;BME280;69633;47.066;15.450;2023-06-10T05:35:14;97310.84;;;19.42;71.07
80321;BME280;69633;47.066;15.450;2023-06-10T05:37:40;97307.00;;;19.43;71.01
80321;BME280;69633;47.066;15.450;2023-06-10T05:40:11;97310.09;;;19.27;71.70
80321;BME280;69633;47.066;15.450;2023-06-10T05:42:38;97310.47;;;19.33;71.77
80321;BME280;69633;47.066;15.450;2023-06-10T05:45:05;97311.56;;;19.53;71.19
80321;BME280;69633;47.066;15.450;2023-06-10T05:47:41;97314.63;;;19.59;71.00
80321;BME280;69633;47.066;15.450;2023-06-10T05:50:08;97303.00;;;19.72;70.46
80321;BME280;69633;47.066;15.450;2023-06-10T05:52:36;97310.66;;;19.77;70.03
80321;BME280;69633;47.066;15.450;2023-06-10T05:55:03;97316.94;;;19.60;70.60
80321;BME280;69633;47.066;15.450;2023-06-10T05:57:32;97323.53;;;19.45;71.26
80321;BME280;69633;47.066;15.450;2023-06-10T05:59:59;97319.25;;;19.55;70.68
80321;BME280;69633;47.066;15.450;2023-06-10T06:02:28;97321.53;;;19.63;70.84
80321;BME280;69633;47.066;15.450;2023-06-10T06:04:54;97312.59;;;19.77;70.40
80321;BME280;69633;47.066;15.450;2023-06-10T06:07:22;97319.19;;;19.65;70.92
80321;BME280;69633;47.066;15.450;2023-06-10T06:09:48;97314.47;;;19.84;70.20
80321;BME280;69633;47.066;15.450;2023-06-10T06:12:15;97310.56;;;19.92;69.90
80321;BME280;69633;47.066;15.450;2023-06-10T06:14:41;97314.38;;;20.01;70.19
80321;BME280;69633;47.066;15.450;2023-06-10T06:17:08;97308.63;;;19.96;69.96
80321;BME280;69633;47.066;15.450;2023-06-10T06:19:34;97314.78;;;19.96;69.89
80321;BME280;69633;47.066;15.450;2023-06-10T06:22:01;97318.97;;;20.04;69.93
80321;BME280;69633;47.066;15.450;2023-06-10T06:24:27;97304.66;;;20.14;69.33
80321;BME280;69633;47.066;15.450;2023-06-10T06:26:54;97310.25;;;20.41;68.88
80321;BME280;69633;47.066;15.450;2023-06-10T06:29:21;97307.94;;;20.40;68.80
80321;BME280;69633;47.066;15.450;2023-06-10T06:31:47;97313.97;;;20.58;68.78
80321;BME280;69633;47.066;15.450;2023-06-10T06:34:14;97315.38;;;20.73;68.06
80321;BME280;69633;47.066;15.450;2023-06-10T06:36:41;97319.25;;;20.68;67.93
80321;BME280;69633;47.066;15.450;2023-06-10T06:39:09;97318.31;;;20.86;68.02
80321;BME280;69633;47.066;15.450;2023-06-10T06:41:36;97318.97;;;20.97;67.42
80321;BME280;69633;47.066;15.450;2023-06-10T06:44:02;97324.22;;;21.11;67.07
80321;BME280;69633;47.066;15.450;2023-06-10T06:46:29;97320.97;;;21.27;66.76
80321;BME280;69633;47.066;15.450;2023-06-10T06:48:55;97314.66;;;21.40;66.23
80321;BME280;69633;47.066;15.450;2023-06-10T06:51:22;97315.22;;;21.55;65.76
80321;BME280;69633;47.066;15.450;2023-06-10T06:53:48;97308.88;;;21.68;65.57
80321;BME280;69633;47.066;15.450;2023-06-10T06:56:17;97310.84;;;21.64;65.61
80321;BME280;69633;47.066;15.450;2023-06-10T06:58:44;97308.09;;;21.68;65.60
80321;BME280;69633;47.066;15.450;2023-06-10T07:01:09;97304.22;;;21.69;65.34
80321;BME280;69633;47.066;15.450;2023-06-10T07:03:36;97310.84;;;21.64;65.02
80321;BME280;69633;47.066;15.450;2023-06-10T07:06:03;97301.97;;;21.64;65.32
80321;BME280;69633;47.066;15.450;2023-06-10T07:08:29;97309.25;;;21.67;65.47
80321;BME280;69633;47.066;15.450;2023-06-10T07:10:56;97311.75;;;21.85;65.36
80321;BME280;69633;47.066;15.450;2023-06-10T07:13:23;97317.34;;;21.71;65.55
80321;BME280;69633;47.066;15.450;2023-06-10T07:15:50;97313.41;;;21.75;65.31
80321;BME280;69633;47.066;15.450;2023-06-10T07:18:17;97320.28;;;21.80;65.34
80321;BME280;69633;47.066;15.450;2023-06-10T07:20:44;97316.00;;;21.82;63.27
80321;BME280;69633;47.066;15.450;2023-06-10T07:23:11;97315.28;;;21.51;63.59
80321;BME280;69633;47.066;15.450;2023-06-10T07:25:38;97313.31;;;21.55;63.98
80321;BME280;69633;47.066;15.450;2023-06-10T07:28:05;97316.16;;;21.72;63.64
80321;BME280;69633;47.066;15.450;2023-06-10T07:30:32;97311.66;;;21.92;63.33
80321;BME280;69633;47.066;15.450;2023-06-10T07:32:57;97305.69;;;22.04;62.82
80321;BME280;69633;47.066;15.450;2023-06-10T07:35:23;97307.72;;;22.23;62.71
80321;BME280;69633;47.066;15.450;2023-06-10T07:37:50;97307.75;;;21.96;62.54
80321;BME280;69633;47.066;15.450;2023-06-10T07:40:17;97311.44;;;22.06;62.32
80321;BME280;69633;47.066;15.450;2023-06-10T07:42:54;97319.47;;;21.83;63.22
80321;BME280;69633;47.066;15.450;2023-06-10T07:45:31;97320.00;;;22.01;62.95
80321;BME280;69633;47.066;15.450;2023-06-10T07:47:57;97316.63;;;21.97;62.64
80321;BME280;69633;47.066;15.450;2023-06-10T07:50:28;97320.44;;;21.99;62.58
80321;BME280;69633;47.066;15.450;2023-06-10T07:52:55;97320.56;;;21.89;63.14
80321;BME280;69633;47.066;15.450;2023-06-10T07:55:21;97312.94;;;22.10;62.64
80321;BME280;69633;47.066;15.450;2023-06-10T07:57:49;97320.75;;;22.28;61.90
80321;BME280;69633;47.066;15.450;2023-06-10T08:00:17;97311.38;;;22.59;61.06
80321;BME280;69633;47.066;15.450;2023-06-10T08:02:43;97320.84;;;22.94;59.53
80321;BME280;69633;47.066;15.450;2023-06-10T08:05:14;97315.25;;;22.82;59.49
80321;BME280;69633;47.066;15.450;2023-06-10T08:07:42;97307.56;;;23.00;59.34
80321;BME280;69633;47.066;15.450;2023-06-10T08:10:09;97316.19;;;23.15;58.92
80321;BME280;69633;47.066;15.450;2023-06-10T08:12:36;97312.72;;;23.34;58.61
80321;BME280;69633;47.066;15.450;2023-06-10T08:15:03;97307.78;;;23.48;57.61
80321;BME280;69633;47.066;15.450;2023-06-10T08:17:32;97313.66;;;23.47;57.88
80321;BME280;69633;47.066;15.450;2023-06-10T08:19:59;97311.19;;;23.52;57.29
80321;BME280;69633;47.066;15.450;2023-06-10T08:22:25;97309.75;;;23.28;58.10
80321;BME280;69633;47.066;15.450;2023-06-10T08:24:52;97309.84;;;23.41;58.25
80321;BME280;69633;47.066;15.450;2023-06-10T08:27:18;97310.06;;;23.30;58.33
80321;BME280;69633;47.066;15.450;2023-06-10T08:29:45;97315.50;;;23.10;58.91
80321;BME280;69633;47.066;15.450;2023-06-10T08:32:11;97307.09;;;23.05;59.09
80321;BME280;69633;47.066;15.450;2023-06-10T08:34:52;97315.56;;;23.07;59.08
80321;BME280;69633;47.066;15.450;2023-06-10T08:37:18;97315.56;;;23.27;58.82
80321;BME280;69633;47.066;15.450;2023-06-10T08:39:45;97316.00;;;23.45;58.46
80321;BME280;69633;47.066;15.450;2023-06-10T08:45:07;97312.09;;;23.82;56.99
80321;BME280;69633;47.066;15.450;2023-06-10T08:47:39;97313.84;;;23.56;57.61
80321;BME280;69633;47.066;15.450;2023-06-10T08:50:08;97310.97;;;23.99;56.69
80321;BME280;69633;47.066;15.450;2023-06-10T08:52:44;97316.34;;;23.83;57.24
80321;BME280;69633;47.066;15.450;2023-06-10T08:55:23;97320.47;;;23.71;57.13
80321;BME280;69633;47.066;15.450;2023-06-10T08:57:54;97312.03;;;23.49;58.28
80321;BME280;69633;47.066;15.450;2023-06-10T09:00:21;97307.91;;;23.41;58.39
80321;BME280;69633;47.066;15.450;2023-06-10T09:02:48;97312.88;;;23.46;58.06
80321;BME280;69633;47.066;15.450;2023-06-10T09:05:16;97313.69;;;23.43;58.83
80321;BME280;69633;47.066;15.450;2023-06-10T09:07:43;97302.44;;;23.81;57.57
80321;BME280;69633;47.066;15.450;2023-06-10T09:10:12;97308.34;;;24.12;56.85
80321;BME280;69633;47.066;15.450;2023-06-10T09:12:39;97303.53;;;24.19;56.71
80321;BME280;69633;47.066;15.450;2023-06-10T09:15:07;97297.47;;;24.12;56.47
80321;BME280;69633;47.066;15.450;2023-06-10T09:17:33;97311.78;;;23.96;56.74
80321;BME280;69633;47.066;15.450;2023-06-10T09:20:00;97310.28;;;23.95;56.96
80321;BME280;69633;47.066;15.450;2023-06-10T09:22:29;97303.00;;;24.08;56.64
80321;BME280;69633;47.066;15.450;2023-06-10T09:25:06;97302.53;;;24.29;56.24
80321;BME280;69633;47.066;15.450;2023-06-10T09:27:58;97305.72;;;23.92;56.99
80321;BME280;69633;47.066;15.450;2023-06-10T09:30:27;97305.78;;;23.13;59.20
80321;BME280;69633;47.066;15.450;2023-06-10T09:33:10;97297.16;;;23.57;58.78
80321;BME280;69633;47.066;15.450;2023-06-10T09:35:47;97295.84;;;24.18;57.20
80321;BME280;69633;47.066;15.450;2023-06-10T09:38:33;97292.69;;;24.51;55.79
80321;BME280;69633;47.066;15.450;2023-06-10T09:40:59;97289.41;;;24.73;55.22
80321;BME280;69633;47.066;15.450;2023-06-10T09:43:44;97292.59;;;24.23;56.19
80321;BME280;69633;47.066;15.450;2023-06-10T09:46:19;97305.28;;;23.93;57.67
80321;BME280;69633;47.066;15.450;2023-06-10T09:48:47;97301.47;;;24.07;56.92
80321;BME280;69633;47.066;15.450;2023-06-10T09:51:17;97287.94;;;24.23;56.62
80321;BME280;69633;47.066;15.450;2023-06-10T09:53:48;97287.44;;;24.28;56.32
80321;BME280;69633;47.066;15.450;2023-06-10T09:56:16;97295.50;;;24.32;56.26
80321;BME280;69633;47.066;15.450;2023-06-10T09:58:45;97288.44;;;24.50;55.64
80321;BME280;69633;47.066;15.450;2023-06-10T10:01:14;97286.88;;;24.66;55.63
80321;BME280;69633;47.066;15.450;2023-06-10T10:03:48;97283.31;;;24.85;55.68
80321;BME280;69633;47.066;15.450;2023-06-10T10:06:17;97287.47;;;24.89;55.61
80321;BME280;69633;47.066;15.450;2023-06-10T10:08:48;97286.63;;;25.05;54.40
80321;BME280;69633;47.066;15.450;2023-06-10T10:11:20;97284.72;;;25.18;54.46
80321;BME280;69633;47.066;15.450;2023-06-10T10:13:51;97286.88;;;25.23;54.07
80321;BME280;69633;47.066;15.450;2023-06-10T10:16:23;97283.13;;;25.33;53.45
80321;BME280;69633;47.066;15.450;2023-06-10T10:19:03;97287.63;;;25.11;54.16
80321;BME280;69633;47.066;15.450;2023-06-10T10:21:38;97277.53;;;25.24;53.80
80321;BME280;69633;47.066;15.450;2023-06-10T10:24:09;97272.47;;;25.26;53.71
80321;BME280;69633;47.066;15.450;2023-06-10T10:26:39;97267.41;;;25.54;52.99
80321;BME280;69633;47.066;15.450;2023-06-10T10:31:32;97265.91;;;25.11;53.60
80321;BME280;69633;47.066;15.450;2023-06-10T10:34:24;97257.94;;;25.04;53.77
80321;BME280;69633;47.066;15.450;2023-06-10T10:36:57;97258.56;;;24.67;54.70
80321;BME280;69633;47.066;15.450;2023-06-10T10:39:24;97260.31;;;25.02;53.63
80321;BME280;69633;47.066;15.450;2023-06-10T10:41:51;97259.31;;;25.37;52.67
80321;BME280;69633;47.066;15.450;2023-06-10T10:44:19;97252.84;;;25.60;51.95
80321;BME280;69633;47.066;15.450;2023-06-10T10:46:49;97251.88;;;25.79;51.14
80321;BME280;69633;47.066;15.450;2023-06-10T10:49:17;97257.63;;;25.94;51.02
80321;BME280;69633;47.066;15.450;2023-06-10T10:54:35;97245.75;;;26.01;50.48
80321;BME280;69633;47.066;15.450;2023-06-10T10:57:17;97250.00;;;25.89;50.19
80321;BME280;69633;47.066;15.450;2023-06-10T10:59:57;97250.09;;;26.11;50.15
80321;BME280;69633;47.066;15.450;2023-06-10T11:02:45;97244.84;;;26.63;49.27
80321;BME280;69633;47.066;15.450;2023-06-10T11:05:15;97239.13;;;25.89;50.29
80321;BME280;69633;47.066;15.450;2023-06-10T11:07:53;97237.78;;;25.43;51.81
80321;BME280;69633;47.066;15.450;2023-06-10T11:10:35;97239.50;;;25.24;52.89
80321;BME280;69633;47.066;15.450;2023-06-10T11:13:25;97231.81;;;25.48;52.42
80321;BME280;69633;47.066;15.450;2023-06-10T11:15:57;97231.13;;;26.32;50.23
80321;BME280;69633;47.066;15.450;2023-06-10T11:18:43;97228.41;;;26.67;49.12
80321;BME280;69633;47.066;15.450;2023-06-10T11:21:10;97231.22;;;26.41;49.64
80321;BME280;69633;47.066;15.450;2023-06-10T11:23:40;97221.78;;;26.55;49.11
80321;BME280;69633;47.066;15.450;2023-06-10T11:26:35;97218.72;;;27.09;48.09
80321;BME280;69633;47.066;15.450;2023-06-10T11:29:03;97216.06;;;26.75;48.08
80321;BME280;69633;47.066;15.450;2023-06-10T11:31:44;97215.25;;;26.65;48.36
80321;BME280;69633;47.066;15.450;2023-06-10T11:34:12;97211.38;;;26.75;48.79
80321;BME280;69633;47.066;15.450;2023-06-10T11:36:43;97202.50;;;27.06;48.12
80321;BME280;69633;47.066;15.450;2023-06-10T11:39:12;97200.19;;;27.26;47.84
80321;BME280;69633;47.066;15.450;2023-06-10T11:41:40;97196.75;;;27.34;46.84
80321;BME280;69633;47.066;15.450;2023-06-10T11:44:25;97201.75;;;27.05;47.22
80321;BME280;69633;47.066;15.450;2023-06-10T11:46:56;97191.16;;;27.07;47.08
80321;BME280;69633;47.066;15.450;2023-06-10T11:49:23;97187.81;;;27.34;47.08
80321;BME280;69633;47.066;15.450;2023-06-10T11:51:51;97193.41;;;27.61;45.71
80321;BME280;69633;47.066;15.450;2023-06-10T11:54:19;97195.34;;;27.52;46.03
80321;BME280;69633;47.066;15.450;2023-06-10T11:56:46;97192.16;;;27.53;45.53
80321;BME280;69633;47.066;15.450;2023-06-10T11:59:13;97195.56;;;27.45;44.45
80321;BME280;69633;47.066;15.450;2023-06-10T12:01:44;97186.06;;;27.18;46.08
80321;BME280;69633;47.066;15.450;2023-06-10T12:04:14;97184.66;;;27.45;45.37
80321;BME280;69633;47.066;15.450;2023-06-10T12:07:02;97172.94;;;27.57;44.79
80321;BME280;69633;47.066;15.450;2023-06-10T12:09:32;97163.13;;;27.68;45.11
80321;BME280;69633;47.066;15.450;2023-06-10T12:12:19;97166.28;;;27.58;45.27
80321;BME280;69633;47.066;15.450;2023-06-10T12:15:23;97173.25;;;27.59;45.94
80321;BME280;69633;47.066;15.450;2023-06-10T12:17:50;97161.91;;;27.69;45.96
80321;BME280;69633;47.066;15.450;2023-06-10T12:20:28;97167.81;;;27.68;45.72
80321;BME280;69633;47.066;15.450;2023-06-10T12:22:55;97154.88;;;28.17;44.49
80321;BME280;69633;47.066;15.450;2023-06-10T12:25:31;97155.19;;;28.74;43.03
80321;BME280;69633;47.066;15.450;2023-06-10T12:27:58;97155.41;;;29.03;42.72
80321;BME280;69633;47.066;15.450;2023-06-10T12:30:26;97161.16;;;29.14;41.66
80321;BME280;69633;47.066;15.450;2023-06-10T12:32:53;97155.78;;;28.78;41.53
80321;BME280;69633;47.066;15.450;2023-06-10T12:35:23;97151.53;;;28.50;42.79
80321;BME280;69633;47.066;15.450;2023-06-10T12:38:02;97155.81;;;28.42;42.79
80321;BME280;69633;47.066;15.450;2023-06-10T12:40:38;97164.09;;;27.44;44.78
80321;BME280;69633;47.066;15.450;2023-06-10T12:43:07;97158.22;;;27.14;46.04
80321;BME280;69633;47.066;15.450;2023-06-10T12:45:41;97158.84;;;26.97;47.20
80321;BME280;69633;47.066;15.450;2023-06-10T12:48:26;97158.94;;;26.84;48.34
80321;BME280;69633;47.066;15.450;2023-06-10T12:51:12;97154.22;;;26.19;52.33
80321;BME280;69633;47.066;15.450;2023-06-10T12:53:40;97160.50;;;25.69;55.27
80321;BME280;69633;47.066;15.450;2023-06-10T12:56:07;97151.28;;;25.67;57.53
80321;BME280;69633;47.066;15.450;2023-06-10T12:58:33;97150.50;;;25.41;57.05
80321;BME280;69633;47.066;15.450;2023-06-10T13:01:00;97148.78;;;25.34;56.53
80321;BME280;69633;47.066;15.450;2023-06-10T13:03:28;97142.56;;;24.96;57.18
80321;BME280;69633;47.066;15.450;2023-06-10T13:05:54;97145.59;;;25.23;57.66
80321;BME280;69633;47.066;15.450;2023-06-10T13:08:22;97147.88;;;25.12;57.24
80321;BME280;69633;47.066;15.450;2023-06-10T13:10:48;97143.22;;;25.25;57.76
80321;BME280;69633;47.066;15.450;2023-06-10T13:13:15;97145.25;;;25.09;57.07
80321;BME280;69633;47.066;15.450;2023-06-10T13:15:41;97148.09;;;25.05;56.68
80321;BME280;69633;47.066;15.450;2023-06-10T13:18:07;97146.69;;;25.26;54.80
80321;BME280;69633;47.066;15.450;2023-06-10T13:20:32;97146.13;;;25.69;57.19